Time;durP1;ratioP1;P1;durP2;ratioP2;P2;SDS_P1;SDS_P2;PMS_P1;PMS_P2;Temp;Humidity;BMP_temperature;BMP_pressure;BME280_temperature;BME280_humidity;BME280_pressure;Samples;Min_cycle;Max_cycle;Signal;HPM_P1;HPM_P2
2023/02/18 00:02:06;;;;;;;;;;;;;;;14.30;100.00;98945.09;5017141;28;20697;-60
2023/02/18 00:04:31;;;;;;;;;;;;;;;14.24;100.00;98954.75;5021681;28;20023;-61
2023/02/18 00:06:58;;;;;;;;;;;;;;;14.27;100.00;98942.63;5021242;28;19925;-60
2023/02/18 00:09:24;;;;;;;;;;;;;;;14.34;100.00;98961.38;5020344;28;19948;-60
2023/02/18 00:11:49;;;;;;;;;;;;;;;14.24;100.00;98955.63;5019464;28;20349;-60
2023/02/18 00:14:15;;;;;;;;;;;;;;;14.21;100.00;98941.97;5020862;28;21097;-59
2023/02/18 00:16:42;;;;;;;;;;;;;;;14.13;100.00;98958.47;5021194;28;19929;-61
2023/02/18 00:19:10;;;;;;;;;;;;;;;14.09;100.00;98932.81;5019692;28;19925;-59
2023/02/18 00:21:35;;;;;;;;;;;;;;;14.22;100.00;98954.78;5017749;28;19928;-59
2023/02/18 00:24:01;;;;;;;;;;;;;;;14.23;100.00;98956.50;5017225;28;20046;-60
2023/02/18 00:26:27;;;;;;;;;;;;;;;14.39;100.00;98955.19;5017775;28;19925;-60
2023/02/18 00:28:53;;;;;;;;;;;;;;;14.38;100.00;98950.94;5015936;28;19924;-59
2023/02/18 00:31:21;;;;;;;;;;;;;;;14.37;100.00;98949.25;5013365;28;19941;-59
2023/02/18 00:33:47;;;;;;;;;;;;;;;14.36;100.00;98951.88;5017871;28;19960;-60
2023/02/18 00:36:14;;;;;;;;;;;;;;;14.34;100.00;98940.72;5019599;28;20016;-60
2023/02/18 00:38:54;;;;;;;;;;;;;;;14.33;100.00;98936.44;5019411;28;19951;-61
2023/02/18 00:41:20;;;;;;;;;;;;;;;14.26;100.00;98951.25;4988169;28;19975;-59
2023/02/18 00:43:46;;;;;;;;;;;;;;;14.33;100.00;98952.78;5021976;28;19932;-58
2023/02/18 00:46:12;;;;;;;;;;;;;;;14.25;100.00;98952.16;5022948;28;19926;-59
2023/02/18 00:48:38;;;;;;;;;;;;;;;14.27;100.00;98936.63;5023528;28;19932;-61
2023/02/18 00:51:04;;;;;;;;;;;;;;;14.33;100.00;98928.72;5023090;28;20016;-60
2023/02/18 00:53:29;;;;;;;;;;;;;;;14.44;100.00;98934.41;5016243;28;20356;-60
2023/02/18 00:55:55;;;;;;;;;;;;;;;14.41;100.00;98950.84;5025382;28;20013;-60
2023/02/18 00:58:21;;;;;;;;;;;;;;;14.37;100.00;98958.72;5026980;28;19945;-60
2023/02/18 01:00:46;;;;;;;;;;;;;;;14.50;100.00;98954.91;5005791;28;20247;-59
2023/02/18 01:03:12;;;;;;;;;;;;;;;14.51;100.00;98957.41;5039807;28;20565;-59
2023/02/18 01:05:38;;;;;;;;;;;;;;;14.48;100.00;98961.81;5037820;28;20426;-59
2023/02/18 01:08:06;;;;;;;;;;;;;;;14.43;100.00;98961.94;5024056;28;19933;-59
2023/02/18 01:10:33;;;;;;;;;;;;;;;14.44;100.00;98963.66;5025321;28;19925;-60
2023/02/18 01:12:59;;;;;;;;;;;;;;;14.49;100.00;98956.63;5007223;28;19929;-60
2023/02/18 01:15:24;;;;;;;;;;;;;;;14.47;100.00;98955.00;5023624;28;19926;-61
2023/02/18 01:17:50;;;;;;;;;;;;;;;14.45;100.00;98965.34;5024062;28;20390;-60
2023/02/18 01:20:16;;;;;;;;;;;;;;;14.39;100.00;98962.94;5024794;28;19932;-60
2023/02/18 01:22:41;;;;;;;;;;;;;;;14.37;100.00;98964.72;5024739;28;20431;-59
2023/02/18 01:25:08;;;;;;;;;;;;;;;14.46;100.00;98959.31;5022507;28;19931;-61
2023/02/18 01:27:33;;;;;;;;;;;;;;;14.38;100.00;98973.31;5024186;28;19979;-59
2023/02/18 01:30:00;;;;;;;;;;;;;;;14.36;100.00;98970.78;5023954;28;19929;-60
2023/02/18 01:32:25;;;;;;;;;;;;;;;14.39;100.00;98969.81;5021404;28;19929;-58
2023/02/18 01:34:51;;;;;;;;;;;;;;;14.32;100.00;98984.59;5023118;28;19972;-59
2023/02/18 01:37:16;;;;;;;;;;;;;;;14.37;100.00;98962.16;5007888;28;20029;-59
2023/02/18 01:39:42;;;;;;;;;;;;;;;14.35;100.00;98968.19;5021549;28;19931;-59
2023/02/18 01:42:16;;;;;;;;;;;;;;;14.26;100.00;98969.28;5006506;28;20289;-60
2023/02/18 01:44:42;;;;;;;;;;;;;;;14.25;100.00;98957.31;5022600;28;19925;-60
2023/02/18 01:47:10;;;;;;;;;;;;;;;14.16;100.00;98948.09;5035611;28;19936;-59
2023/02/18 01:49:36;;;;;;;;;;;;;;;14.20;100.00;98943.69;5006726;28;19925;-58
2023/02/18 01:52:03;;;;;;;;;;;;;;;14.21;100.00;98947.13;5016023;28;19926;-59
2023/02/18 01:54:33;;;;;;;;;;;;;;;14.18;100.00;98951.47;5024130;28;19980;-60
2023/02/18 01:57:04;;;;;;;;;;;;;;;14.09;100.00;98949.13;5022376;28;19929;-59
2023/02/18 01:59:32;;;;;;;;;;;;;;;14.15;100.00;98951.56;5021619;28;19932;-60
2023/02/18 02:01:57;;;;;;;;;;;;;;;14.11;100.00;98949.09;5018213;28;19952;-60
2023/02/18 02:04:23;;;;;;;;;;;;;;;14.09;100.00;98946.56;5018457;28;20268;-60
2023/02/18 02:06:48;;;;;;;;;;;;;;;14.04;100.00;98955.34;5021088;28;20309;-59
2023/02/18 02:09:15;;;;;;;;;;;;;;;14.11;100.00;98956.84;5021789;28;19963;-59
2023/02/18 02:11:55;;;;;;;;;;;;;;;14.18;100.00;98942.88;5022347;28;19929;-59
2023/02/18 02:14:28;;;;;;;;;;;;;;;14.09;100.00;98933.66;5022365;28;20119;-60
2023/02/18 02:17:01;;;;;;;;;;;;;;;14.04;100.00;98942.44;5021810;28;20191;-60
2023/02/18 02:19:27;;;;;;;;;;;;;;;13.96;100.00;98947.78;5021341;28;19948;-59
2023/02/18 02:22:08;;;;;;;;;;;;;;;13.99;100.00;98944.31;5005822;28;19924;-61
2023/02/18 02:24:38;;;;;;;;;;;;;;;13.99;100.00;98915.94;4993743;28;19991;-59
2023/02/18 02:27:22;;;;;;;;;;;;;;;14.02;100.00;98927.00;5020666;28;19925;-59
2023/02/18 02:30:12;;;;;;;;;;;;;;;14.04;100.00;98955.34;5021907;28;19940;-59
2023/02/18 02:32:43;;;;;;;;;;;;;;;13.98;100.00;98969.22;5018104;28;19934;-60
2023/02/18 02:35:18;;;;;;;;;;;;;;;13.96;100.00;98940.06;5003970;28;20024;-60
2023/02/18 02:37:46;;;;;;;;;;;;;;;13.99;100.00;98964.91;5038433;28;19933;-59
2023/02/18 02:40:19;;;;;;;;;;;;;;;13.96;100.00;98940.06;5021130;28;19972;-59
2023/02/18 02:42:50;;;;;;;;;;;;;;;13.90;100.00;98947.97;5022746;28;19955;-63
2023/02/18 02:45:19;;;;;;;;;;;;;;;13.86;100.00;98997.91;5018996;28;19934;-59
2023/02/18 02:47:50;;;;;;;;;;;;;;;13.83;100.00;98967.06;5019740;28;19924;-59
2023/02/18 02:50:21;;;;;;;;;;;;;;;13.78;100.00;98991.28;5023242;28;19929;-59
2023/02/18 02:52:49;;;;;;;;;;;;;;;13.71;100.00;98964.78;5018711;28;19984;-60
2023/02/18 02:55:18;;;;;;;;;;;;;;;13.70;100.00;98992.31;4988353;28;20029;-59
2023/02/18 02:57:50;;;;;;;;;;;;;;;13.69;100.00;98985.47;5007791;28;20043;-59
2023/02/18 03:00:31;;;;;;;;;;;;;;;13.54;100.00;98974.69;4996578;28;20380;-59
2023/02/18 03:03:09;;;;;;;;;;;;;;;13.53;100.00;98973.03;5017276;28;20051;-59
2023/02/18 03:05:37;;;;;;;;;;;;;;;13.58;100.00;98964.28;4998555;28;20486;-60
2023/02/18 03:08:10;;;;;;;;;;;;;;;13.54;100.00;98998.72;5038671;28;20036;-58
2023/02/18 03:10:46;;;;;;;;;;;;;;;13.51;100.00;98965.31;5017160;28;19956;-59
2023/02/18 03:13:31;;;;;;;;;;;;;;;13.47;100.00;98970.59;4999622;28;19925;-59
2023/02/18 03:15:56;;;;;;;;;;;;;;;13.47;100.00;98978.31;5004029;28;19925;-59
2023/02/18 03:18:32;;;;;;;;;;;;;;;13.44;100.00;98968.94;5003772;28;19990;-59
2023/02/18 03:21:07;;;;;;;;;;;;;;;13.31;100.00;98967.56;5000197;28;19976;-63
2023/02/18 03:23:59;;;;;;;;;;;;;;;13.42;100.00;98985.31;4998290;28;20407;-58
2023/02/18 03:26:27;;;;;;;;;;;;;;;13.40;100.00;98963.91;4983550;28;19930;-60
2023/02/18 03:28:55;;;;;;;;;;;;;;;13.45;100.00;98995.56;4995280;28;19989;-58
2023/02/18 03:31:25;;;;;;;;;;;;;;;13.44;100.00;98966.38;5001508;28;19925;-60
2023/02/18 03:34:09;;;;;;;;;;;;;;;13.43;100.00;98992.16;4988848;28;19932;-59
2023/02/18 03:36:36;;;;;;;;;;;;;;;13.40;100.00;98981.94;5017864;28;19929;-58
2023/02/18 03:39:03;;;;;;;;;;;;;;;13.46;100.00;98969.75;4999246;28;19936;-57
2023/02/18 03:41:29;;;;;;;;;;;;;;;13.42;100.00;98987.88;4998869;28;19931;-58
2023/02/18 03:44:04;;;;;;;;;;;;;;;13.32;100.00;98969.25;5014173;28;20003;-59
2023/02/18 03:46:30;;;;;;;;;;;;;;;13.26;100.00;98979.69;5016818;28;19932;-58
2023/02/18 03:48:57;;;;;;;;;;;;;;;13.22;100.00;98934.31;4999638;28;19959;-59
2023/02/18 03:51:22;;;;;;;;;;;;;;;13.31;100.00;98995.03;4998062;28;19925;-58
2023/02/18 03:53:51;;;;;;;;;;;;;;;13.36;100.00;98972.59;5001108;28;19944;-60
2023/02/18 03:56:17;;;;;;;;;;;;;;;13.31;100.00;98971.84;4993430;28;19965;-59
2023/02/18 03:58:42;;;;;;;;;;;;;;;13.30;100.00;98989.03;5002058;28;19929;-56
2023/02/18 04:01:08;;;;;;;;;;;;;;;13.32;100.00;98966.69;5001511;28;20439;-59
2023/02/18 04:03:33;;;;;;;;;;;;;;;13.27;100.00;98965.94;4999398;28;20262;-59
2023/02/18 04:05:59;;;;;;;;;;;;;;;13.28;100.00;98983.09;4999424;28;19929;-59
2023/02/18 04:08:24;;;;;;;;;;;;;;;13.28;100.00;99008.84;4997916;28;20501;-57
2023/02/18 04:10:50;;;;;;;;;;;;;;;13.26;100.00;98970.25;4999846;28;19930;-58
2023/02/18 04:13:16;;;;;;;;;;;;;;;13.24;100.00;98994.31;5018969;28;19933;-58
2023/02/18 04:15:42;;;;;;;;;;;;;;;13.29;100.00;98995.06;5023253;28;20399;-57
2023/02/18 04:18:08;;;;;;;;;;;;;;;13.24;100.00;98979.72;5019693;28;20364;-58
2023/02/18 04:20:33;;;;;;;;;;;;;;;13.19;100.00;98991.88;5022648;28;19954;-60
2023/02/18 04:22:59;;;;;;;;;;;;;;;13.19;100.00;98981.59;5027893;28;20272;-56
2023/02/18 04:25:24;;;;;;;;;;;;;;;13.20;100.00;99003.00;5029508;28;20190;-58
2023/02/18 04:27:50;;;;;;;;;;;;;;;13.22;100.00;98978.06;5026219;28;19995;-58
2023/02/18 04:30:16;;;;;;;;;;;;;;;13.19;100.00;98991.88;5025746;28;20034;-58
2023/02/18 04:32:41;;;;;;;;;;;;;;;13.25;100.00;98970.28;5025734;28;20481;-58
2023/02/18 04:35:07;;;;;;;;;;;;;;;13.20;100.00;99010.72;5027235;28;20434;-58
2023/02/18 04:37:32;;;;;;;;;;;;;;;13.23;100.00;99000.38;5027046;28;19925;-58
2023/02/18 04:39:58;;;;;;;;;;;;;;;13.27;100.00;98996.84;5027416;28;19941;-58
2023/02/18 04:42:24;;;;;;;;;;;;;;;13.30;100.00;99004.47;5044129;28;20201;-58
2023/02/18 04:44:49;;;;;;;;;;;;;;;13.24;100.00;98996.91;5012230;28;20368;-59
2023/02/18 04:47:15;;;;;;;;;;;;;;;13.23;100.00;99028.69;5028181;28;19932;-57
2023/02/18 04:49:40;;;;;;;;;;;;;;;13.24;100.00;99025.22;5026187;28;19965;-59
2023/02/18 04:52:06;;;;;;;;;;;;;;;13.25;100.00;98998.59;5024763;28;19929;-59
2023/02/18 04:54:31;;;;;;;;;;;;;;;13.28;100.00;99007.09;5025481;28;19940;-58
2023/02/18 04:56:57;;;;;;;;;;;;;;;13.19;100.00;99015.06;5011052;28;19932;-58
2023/02/18 04:59:22;;;;;;;;;;;;;;;13.20;100.00;99039.03;5024401;28;19929;-58
2023/02/18 05:01:48;;;;;;;;;;;;;;;13.23;100.00;99008.94;5025543;28;20451;-58
2023/02/18 05:04:13;;;;;;;;;;;;;;;13.19;100.00;99019.34;5025229;28;19932;-58
2023/02/18 05:06:41;;;;;;;;;;;;;;;13.20;100.00;99033.91;5012158;28;19925;-59
2023/02/18 05:09:07;;;;;;;;;;;;;;;13.15;100.00;99015.16;5026858;28;20683;-58
2023/02/18 05:11:33;;;;;;;;;;;;;;;13.12;100.00;99028.06;5025514;28;19925;-59
2023/02/18 05:13:58;;;;;;;;;;;;;;;13.11;100.00;99027.22;5025972;28;19928;-59
2023/02/18 05:16:24;;;;;;;;;;;;;;;13.11;100.00;98975.75;5024044;28;19968;-60
2023/02/18 05:18:49;;;;;;;;;;;;;;;13.10;100.00;99022.97;5026489;28;19965;-59
2023/02/18 05:21:14;;;;;;;;;;;;;;;13.02;100.00;99026.59;5026436;28;19933;-59
2023/02/18 05:23:40;;;;;;;;;;;;;;;12.99;100.00;99042.06;5021699;28;20379;-59
2023/02/18 05:26:05;;;;;;;;;;;;;;;13.00;100.00;99029.19;5025411;28;19968;-59
2023/02/18 05:28:31;;;;;;;;;;;;;;;12.94;100.00;99049.91;5025779;28;19948;-59
2023/02/18 05:30:57;;;;;;;;;;;;;;;12.97;100.00;99024.09;5025498;28;20525;-59
2023/02/18 05:33:22;;;;;;;;;;;;;;;13.00;100.00;99031.75;5019096;28;20063;-60
2023/02/18 05:35:48;;;;;;;;;;;;;;;12.95;100.00;99036.16;5019610;28;20410;-59
2023/02/18 05:38:14;;;;;;;;;;;;;;;12.94;100.00;99003.59;5022175;28;20449;-59
2023/02/18 05:40:39;;;;;;;;;;;;;;;12.89;100.00;99004.56;5022066;28;19932;-59
2023/02/18 05:43:05;;;;;;;;;;;;;;;12.88;100.00;99002.88;5022159;28;20301;-59
2023/02/18 05:45:30;;;;;;;;;;;;;;;12.91;100.00;99036.25;5021594;28;20453;-59
2023/02/18 05:47:56;;;;;;;;;;;;;;;12.85;100.00;99013.25;5022144;28;20363;-60
2023/02/18 05:50:22;;;;;;;;;;;;;;;12.89;100.00;99032.88;5023166;28;19929;-60
2023/02/18 05:52:47;;;;;;;;;;;;;;;12.90;100.00;99034.56;5023608;28;20304;-60
2023/02/18 05:55:12;;;;;;;;;;;;;;;12.91;100.00;99039.66;5022727;28;19926;-59
2023/02/18 05:57:38;;;;;;;;;;;;;;;12.98;100.00;99042.97;5008983;28;19926;-59
2023/02/18 06:00:05;;;;;;;;;;;;;;;12.93;100.00;99053.38;5022491;28;20316;-60
2023/02/18 06:02:30;;;;;;;;;;;;;;;12.97;100.00;99038.69;5021244;28;19975;-60
2023/02/18 06:04:57;;;;;;;;;;;;;;;12.85;100.00;99039.81;5021798;28;19933;-59
2023/02/18 06:07:22;;;;;;;;;;;;;;;12.89;100.00;99033.72;5007902;28;19960;-59
2023/02/18 06:09:48;;;;;;;;;;;;;;;12.91;100.00;99055.09;5020627;28;20681;-59
2023/02/18 06:12:13;;;;;;;;;;;;;;;12.91;100.00;99064.56;5036496;28;19956;-60
2023/02/18 06:14:41;;;;;;;;;;;;;;;12.88;100.00;99042.31;5021598;28;19933;-59
2023/02/18 06:17:07;;;;;;;;;;;;;;;12.89;100.00;99041.44;5000396;28;20478;-60
2023/02/18 06:19:33;;;;;;;;;;;;;;;12.89;100.00;99051.75;5018048;28;20708;-59
2023/02/18 06:21:58;;;;;;;;;;;;;;;12.86;100.00;99071.56;5020997;28;20055;-58
2023/02/18 06:24:23;;;;;;;;;;;;;;;12.87;100.00;99056.06;5021624;28;19932;-61
2023/02/18 06:26:49;;;;;;;;;;;;;;;12.85;100.00;99041.53;5021152;28;19936;-60
2023/02/18 06:29:14;;;;;;;;;;;;;;;12.85;100.00;99081.00;5021189;28;19932;-61
2023/02/18 06:31:40;;;;;;;;;;;;;;;12.83;100.00;99057.00;5022163;28;19929;-62
2023/02/18 06:34:05;;;;;;;;;;;;;;;12.81;100.00;99062.16;5021529;28;19929;-58
2023/02/18 06:36:31;;;;;;;;;;;;;;;12.86;100.00;99063.81;5021703;28;19936;-59
2023/02/18 06:38:58;;;;;;;;;;;;;;;12.79;100.00;99063.94;5020263;28;19951;-60
2023/02/18 06:41:24;;;;;;;;;;;;;;;12.82;100.00;99060.44;5019799;28;20043;-62
2023/02/18 06:43:50;;;;;;;;;;;;;;;12.79;100.00;99068.25;5020671;28;20347;-59
2023/02/18 06:46:15;;;;;;;;;;;;;;;12.78;100.00;99054.53;5020103;28;19964;-59
2023/02/18 06:48:41;;;;;;;;;;;;;;;12.79;100.00;99069.09;5021068;28;19924;-64
2023/02/18 06:51:06;;;;;;;;;;;;;;;12.79;100.00;99063.09;5020504;28;19925;-60
2023/02/18 06:53:32;;;;;;;;;;;;;;;12.76;100.00;99064.03;5019982;28;20315;-59
2023/02/18 06:55:57;;;;;;;;;;;;;;;12.83;100.00;99060.44;5009155;28;20292;-59
2023/02/18 06:58:23;;;;;;;;;;;;;;;12.90;100.00;99053.41;5023219;28;19931;-58
2023/02/18 07:00:48;;;;;;;;;;;;;;;12.88;100.00;99069.78;5021835;28;20358;-58
2023/02/18 07:03:14;;;;;;;;;;;;;;;12.90;100.00;99068.03;5001454;28;20379;-59
2023/02/18 07:05:40;;;;;;;;;;;;;;;12.89;100.00;99068.91;5022355;28;19925;-59
2023/02/18 07:08:05;;;;;;;;;;;;;;;12.84;100.00;99112.75;5022231;28;20438;-59
2023/02/18 07:10:31;;;;;;;;;;;;;;;12.85;100.00;99083.56;5009003;28;19925;-58
2023/02/18 07:12:57;;;;;;;;;;;;;;;12.83;100.00;99064.72;5016726;28;19987;-57
2023/02/18 07:15:23;;;;;;;;;;;;;;;12.77;100.00;99057.97;5016105;28;20291;-57
2023/02/18 07:17:51;;;;;;;;;;;;;;;12.74;100.00;99072.63;5019438;28;19925;-59
2023/02/18 07:20:17;;;;;;;;;;;;;;;12.75;100.00;99070.03;5010399;28;19974;-56
2023/02/18 07:22:43;;;;;;;;;;;;;;;12.69;100.00;99077.88;5019156;28;19925;-59
2023/02/18 07:25:08;;;;;;;;;;;;;;;12.70;100.00;99077.00;5018222;28;19971;-60
2023/02/18 07:27:33;;;;;;;;;;;;;;;12.72;100.00;99067.53;5018631;28;20280;-61
2023/02/18 07:29:59;;;;;;;;;;;;;;;12.74;100.00;99070.91;5035758;28;19990;-60
2023/02/18 07:32:24;;;;;;;;;;;;;;;12.70;100.00;99081.28;5014734;28;20384;-61
2023/02/18 07:34:51;;;;;;;;;;;;;;;12.72;100.00;99056.41;5007906;28;19930;-61
2023/02/18 07:37:16;;;;;;;;;;;;;;;12.71;100.00;99052.97;5019687;28;19929;-61
2023/02/18 07:39:42;;;;;;;;;;;;;;;12.78;100.00;99051.09;5019649;28;19987;-60
2023/02/18 07:42:08;;;;;;;;;;;;;;;12.77;100.00;99050.25;5022386;28;20379;-60
2023/02/18 07:44:34;;;;;;;;;;;;;;;12.79;100.00;99040.78;5016771;28;19932;-60
2023/02/18 07:47:00;;;;;;;;;;;;;;;12.87;100.00;99042.34;5018505;28;19933;-60
2023/02/18 07:49:26;;;;;;;;;;;;;;;12.87;100.00;99043.19;5021652;28;20502;-60
2023/02/18 07:51:54;;;;;;;;;;;;;;;12.91;100.00;99038.81;5019669;28;20025;-60
2023/02/18 07:54:19;;;;;;;;;;;;;;;13.00;100.00;99043.78;5009400;28;19933;-61
2023/02/18 07:56:45;;;;;;;;;;;;;;;13.05;100.00;99026.50;5002752;28;19978;-70
2023/02/18 07:59:11;;;;;;;;;;;;;;;13.07;100.00;99030.72;5019559;28;20765;-68
2023/02/18 08:01:37;;;;;;;;;;;;;;;13.17;100.00;99037.41;5019233;28;19932;-62
2023/02/18 08:04:03;;;;;;;;;;;;;;;13.18;100.00;99033.94;5020027;28;20377;-62
2023/02/18 08:06:39;;;;;;;;;;;;;;;13.25;100.00;99035.50;5019899;28;20241;-60
2023/02/18 08:09:05;;;;;;;;;;;;;;;13.22;100.00;99051.03;5020630;28;19950;-60
2023/02/18 08:11:30;;;;;;;;;;;;;;;13.24;100.00;99032.94;5033770;28;19929;-59
2023/02/18 08:13:56;;;;;;;;;;;;;;;13.25;100.00;99035.50;5019217;28;20504;-61
2023/02/18 08:16:22;;;;;;;;;;;;;;;13.25;100.00;99040.63;5019425;28;19951;-58
2023/02/18 08:18:48;;;;;;;;;;;;;;;13.33;100.00;99026.72;5019271;28;19948;-59
2023/02/18 08:21:14;;;;;;;;;;;;;;;13.36;100.00;99036.97;5019774;28;19947;-60
2023/02/18 08:23:40;;;;;;;;;;;;;;;13.39;100.00;99040.31;5018022;28;19925;-60
2023/02/18 08:26:06;;;;;;;;;;;;;;;13.40;100.00;99029.16;5018815;28;20603;-59
2023/02/18 08:28:40;;;;;;;;;;;;;;;13.43;100.00;99031.63;5020957;28;19925;-59
2023/02/18 08:31:06;;;;;;;;;;;;;;;13.36;100.00;99031.84;5019305;28;19978;-60
2023/02/18 08:33:31;;;;;;;;;;;;;;;13.43;100.00;99035.94;5021814;28;19975;-60
2023/02/18 08:35:57;;;;;;;;;;;;;;;13.48;100.00;99045.25;5005955;28;20467;-59
2023/02/18 08:38:23;;;;;;;;;;;;;;;13.54;100.00;99031.38;5020432;28;19921;-59
2023/02/18 08:40:48;;;;;;;;;;;;;;;13.56;100.00;99045.06;5018107;28;20321;-61
2023/02/18 08:43:15;;;;;;;;;;;;;;;13.55;100.00;99036.50;5016150;28;19970;-62
2023/02/18 08:45:41;;;;;;;;;;;;;;;13.59;100.00;99034.69;5016071;28;19930;-60
2023/02/18 08:48:07;;;;;;;;;;;;;;;13.62;100.00;99040.59;5015438;28;19925;-60
2023/02/18 08:50:32;;;;;;;;;;;;;;;13.69;100.00;99042.16;5015791;28;20791;-62
2023/02/18 08:53:02;;;;;;;;;;;;;;;13.65;100.00;99045.69;5018300;28;19968;-61
2023/02/18 08:55:30;;;;;;;;;;;;;;;13.70;100.00;99048.16;5019066;28;19935;-61
2023/02/18 08:57:55;;;;;;;;;;;;;;;13.77;100.00;99031.66;5017542;28;20527;-61
2023/02/18 09:00:21;;;;;;;;;;;;;;;13.84;100.00;99030.59;5019491;28;20012;-61
2023/02/18 09:02:46;;;;;;;;;;;;;;;13.90;100.00;99029.59;5031451;28;20261;-62
2023/02/18 09:05:12;;;;;;;;;;;;;;;14.00;100.00;99020.75;5019177;28;20015;-61
2023/02/18 09:07:38;;;;;;;;;;;;;;;14.05;100.00;99024.03;5021640;28;20381;-61
2023/02/18 09:10:04;;;;;;;;;;;;;;;14.02;100.00;99043.03;5026688;28;19936;-60
2023/02/18 09:12:29;;;;;;;;;;;;;;;13.94;100.00;99031.22;5005675;28;20048;-61
2023/02/18 09:14:55;;;;;;;;;;;;;;;13.97;100.00;99036.28;5019494;28;19933;-54
2023/02/18 09:17:20;;;;;;;;;;;;;;;13.94;100.00;99031.22;5018996;28;20456;-58
2023/02/18 09:19:46;;;;;;;;;;;;;;;13.99;100.00;99052.56;5021173;28;19925;-55
2023/02/18 09:22:12;;;;;;;;;;;;;;;13.89;100.00;99041.66;5020625;28;20097;-56
2023/02/18 09:24:38;;;;;;;;;;;;;;;13.95;100.00;99054.38;5022935;28;19932;-59
2023/02/18 09:27:04;;;;;;;;;;;;;;;13.93;100.00;99050.13;5024332;28;20016;-56
2023/02/18 09:29:30;;;;;;;;;;;;;;;13.97;100.00;99044.88;5023750;28;20008;-58
2023/02/18 09:31:59;;;;;;;;;;;;;;;13.98;100.00;99043.13;5020656;28;19929;-58
2023/02/18 09:34:24;;;;;;;;;;;;;;;14.09;100.00;99033.38;5020469;28;19929;-57
2023/02/18 09:36:50;;;;;;;;;;;;;;;14.23;100.00;99033.88;5040410;28;19959;-58
2023/02/18 09:39:16;;;;;;;;;;;;;;;14.35;100.00;99030.97;5025892;28;20010;-58
2023/02/18 09:41:44;;;;;;;;;;;;;;;14.28;100.00;99023.44;5026744;28;19952;-56
2023/02/18 09:44:17;;;;;;;;;;;;;;;14.45;100.00;99009.19;5020599;28;19932;-56
2023/02/18 09:46:49;;;;;;;;;;;;;;;14.44;100.00;99006.66;5021910;28;19925;-58
2023/02/18 09:49:16;;;;;;;;;;;;;;;14.49;100.00;98999.63;5013135;28;20338;-57
2023/02/18 09:51:42;;;;;;;;;;;;;;;14.41;100.00;99001.59;5021012;28;20024;-59
2023/02/18 09:54:11;;;;;;;;;;;;;;;14.50;100.00;99017.66;5001669;28;19929;-58
2023/02/18 09:56:38;;;;;;;;;;;;;;;14.62;100.00;98994.09;5019915;28;19979;-58
2023/02/18 09:59:09;;;;;;;;;;;;;;;14.44;100.00;98998.91;5022465;28;19956;-57
2023/02/18 10:01:36;;;;;;;;;;;;;;;14.46;100.00;99008.31;5018563;28;19925;-57
2023/02/18 10:04:08;;;;;;;;;;;;;;;14.48;100.00;99016.84;5021708;28;20039;-58
2023/02/18 10:06:35;;;;;;;;;;;;;;;14.46;100.00;99010.91;5001592;28;20051;-57
2023/02/18 10:09:09;;;;;;;;;;;;;;;14.56;100.00;98989.09;5018167;28;20015;-56
2023/02/18 10:11:39;;;;;;;;;;;;;;;14.62;100.00;98994.09;5020074;28;19932;-62
2023/02/18 10:14:08;;;;;;;;;;;;;;;14.58;100.00;98984.75;5020476;28;19925;-56
2023/02/18 10:16:34;;;;;;;;;;;;;;;14.75;100.00;98985.97;5018584;28;20005;-57
2023/02/18 10:19:02;;;;;;;;;;;;;;;14.78;100.00;98978.97;5036825;28;19929;-58
2023/02/18 10:21:31;;;;;;;;;;;;;;;14.82;100.00;98978.00;5021484;28;20521;-56
2023/02/18 10:23:57;;;;;;;;;;;;;;;14.96;100.00;98973.25;5022895;28;19925;-57
2023/02/18 10:26:23;;;;;;;;;;;;;;;14.99;100.00;98974.88;5019601;28;20320;-58
2023/02/18 10:28:48;;;;;;;;;;;;;;;14.90;100.00;98988.91;5021152;28;19951;-58
2023/02/18 10:31:33;;;;;;;;;;;;;;;15.08;100.00;98967.69;5020869;28;19929;-59
2023/02/18 10:34:02;;;;;;;;;;;;;;;15.21;100.00;98975.06;5021530;28;20225;-57
2023/02/18 10:36:30;;;;;;;;;;;;;;;15.11;100.00;98984.81;5022867;28;19928;-64
2023/02/18 10:38:56;;;;;;;;;;;;;;;15.12;100.00;98976.19;5022302;28;19956;-57
2023/02/18 10:41:41;;;;;;;;;;;;;;;15.00;100.00;98986.91;5021263;28;19925;-59
2023/02/18 10:44:25;;;;;;;;;;;;;;;14.74;100.00;98984.28;4999804;28;19929;-57
2023/02/18 10:47:09;;;;;;;;;;;;;;;14.77;100.00;98979.84;5019870;28;20016;-59
2023/02/18 10:49:52;;;;;;;;;;;;;;;14.83;100.00;98977.09;5022098;28;20156;-58
2023/02/18 10:52:18;;;;;;;;;;;;;;;14.78;100.00;98981.56;5020762;28;20455;-61
2023/02/18 10:54:49;;;;;;;;;;;;;;;14.75;100.00;98973.91;5036506;28;20024;-58
2023/02/18 10:57:20;;;;;;;;;;;;;;;14.59;100.00;98970.09;5017973;28;19963;-56
2023/02/18 11:00:12;;;;;;;;;;;;;;;14.59;100.00;98965.78;5018293;28;19929;-57
2023/02/18 11:02:38;;;;;;;;;;;;;;;14.58;100.00;98956.34;5011991;28;20380;-56
2023/02/18 11:05:18;;;;;;;;;;;;;;;14.56;100.00;98954.69;5020467;28;20041;-55
2023/02/18 11:07:47;;;;;;;;;;;;;;;14.54;100.00;98948.75;5020644;28;20039;-57
2023/02/18 11:10:17;;;;;;;;;;;;;;;14.48;100.00;98954.94;5021577;28;20371;-57
2023/02/18 11:12:46;;;;;;;;;;;;;;;14.65;100.00;98957.00;5006243;28;19925;-57
2023/02/18 11:15:20;;;;;;;;;;;;;;;14.68;100.00;98953.50;5019676;28;19933;-57
2023/02/18 11:17:47;;;;;;;;;;;;;;;14.59;100.00;98957.22;5020536;28;19983;-57
2023/02/18 11:20:23;;;;;;;;;;;;;;;14.61;100.00;98940.78;5007163;28;19937;-59
2023/02/18 11:22:48;;;;;;;;;;;;;;;14.74;100.00;98930.06;5021175;28;19995;-58
2023/02/18 11:25:20;;;;;;;;;;;;;;;14.72;100.00;98916.38;5021294;28;19922;-56
2023/02/18 11:27:55;;;;;;;;;;;;;;;14.80;100.00;98922.16;5021868;28;19932;-57
2023/02/18 11:30:38;;;;;;;;;;;;;;;14.94;100.00;98922.53;5020642;28;20431;-58
2023/02/18 11:33:22;;;;;;;;;;;;;;;14.96;100.00;98925.94;5019349;28;19933;-57
2023/02/18 11:35:49;;;;;;;;;;;;;;;14.95;100.00;98907.00;5020869;28;19925;-57
2023/02/18 11:38:34;;;;;;;;;;;;;;;15.17;100.00;98895.97;5035162;28;20011;-55
2023/02/18 11:41:05;;;;;;;;;;;;;;;15.56;100.00;98886.06;5016911;28;19925;-57
2023/02/18 11:43:33;;;;;;;;;;;;;;;15.94;100.00;98878.63;5001409;28;20384;-56
2023/02/18 11:46:08;;;;;;;;;;;;;;;16.17;99.06;98890.69;5015261;28;19932;-57
2023/02/18 11:48:34;;;;;;;;;;;;;;;16.03;100.00;98880.03;5016520;28;20392;-59
2023/02/18 11:51:00;;;;;;;;;;;;;;;15.79;100.00;98886.94;5003422;28;19933;-59
2023/02/18 11:53:26;;;;;;;;;;;;;;;15.80;100.00;98865.34;5017825;28;19979;-58
2023/02/18 11:56:05;;;;;;;;;;;;;;;16.00;100.00;98869.78;5017501;28;20371;-58
2023/02/18 11:58:39;;;;;;;;;;;;;;;16.02;100.00;98854.22;5021022;28;19924;-58
2023/02/18 12:01:11;;;;;;;;;;;;;;;15.82;98.45;98852.38;5017404;28;20023;-58
2023/02/18 12:03:39;;;;;;;;;;;;;;;15.46;98.54;98837.25;5015779;28;19994;-58
2023/02/18 12:06:13;;;;;;;;;;;;;;;15.43;99.60;98841.69;5021216;28;19971;-58
2023/02/18 12:08:46;;;;;;;;;;;;;;;15.27;98.73;98841.38;5021688;28;20399;-58
2023/02/18 12:11:15;;;;;;;;;;;;;;;15.31;100.00;98836.97;4999188;28;20518;-59
2023/02/18 12:13:45;;;;;;;;;;;;;;;15.34;98.52;98834.25;5017915;28;19948;-58
2023/02/18 12:16:10;;;;;;;;;;;;;;;15.36;98.92;98822.97;5020536;28;20352;-60
2023/02/18 12:19:00;;;;;;;;;;;;;;;15.27;99.32;98814.72;5022008;28;19925;-56
2023/02/18 12:21:35;;;;;;;;;;;;;;;15.49;97.85;98811.28;5010760;28;20442;-57
2023/02/18 12:24:09;;;;;;;;;;;;;;;15.51;95.66;98801.78;5019489;28;19925;-59
2023/02/18 12:26:47;;;;;;;;;;;;;;;15.63;96.08;98797.06;5019607;28;19929;-59
2023/02/18 12:29:31;;;;;;;;;;;;;;;15.80;94.43;98785.22;5019968;28;19929;-59
2023/02/18 12:32:30;;;;;;;;;;;;;;;15.93;94.01;98777.81;5018235;28;20369;-58
2023/02/18 12:34:58;;;;;;;;;;;;;;;16.20;92.89;98763.00;4999601;28;19982;-58
2023/02/18 12:37:30;;;;;;;;;;;;;;;16.44;91.14;98756.84;5020486;28;19925;-59
2023/02/18 12:39:58;;;;;;;;;;;;;;;16.55;87.36;98756.41;5021544;28;19976;-58
2023/02/18 12:42:31;;;;;;;;;;;;;;;16.73;83.22;98750.47;5022349;28;19925;-57
2023/02/18 12:45:09;;;;;;;;;;;;;;;16.71;79.86;98755.75;5024677;28;20471;-59